sensor_id;sensor_type;location;lat;lon;timestamp;pressure;altitude;pressure_sealevel;temperature;humidity
69402;BME280;56589;51.992;5.924;2024-03-23T00:53:08;100473.00;;;7.23;91.29
69402;BME280;56589;51.992;5.924;2024-03-23T00:55:34;100459.09;;;7.23;91.58
69402;BME280;56589;51.992;5.924;2024-03-23T00:57:59;100453.94;;;7.21;91.24
69402;BME280;56589;51.992;5.924;2024-03-23T01:00:25;100448.91;;;7.18;91.21
69402;BME280;56589;51.992;5.924;2024-03-23T01:02:51;100458.75;;;7.13;91.25
69402;BME280;56589;51.992;5.924;2024-03-23T01:05:17;100463.13;;;7.13;91.40
69402;BME280;56589;51.992;5.924;2024-03-23T01:07:43;100451.06;;;7.10;91.64
69402;BME280;56589;51.992;5.924;2024-03-23T01:10:11;100449.34;;;7.11;91.57
69402;BME280;56589;51.992;5.924;2024-03-23T01:12:37;100451.84;;;7.12;91.78
69402;BME280;56589;51.992;5.924;2024-03-23T01:15:03;100455.41;;;7.11;91.44
69402;BME280;56589;51.992;5.924;2024-03-23T01:17:30;100454.56;;;7.11;91.89
69402;BME280;56589;51.992;5.924;2024-03-23T01:19:56;100448.41;;;7.12;92.00
69402;BME280;56589;51.992;5.924;2024-03-23T01:22:22;100437.97;;;7.12;91.87
69402;BME280;56589;51.992;5.924;2024-03-23T01:24:47;100438.03;;;7.10;91.55
69402;BME280;56589;51.992;5.924;2024-03-23T01:27:16;100432.81;;;7.10;91.98
69402;BME280;56589;51.992;5.924;2024-03-23T01:29:42;100434.56;;;7.09;91.71
69402;BME280;56589;51.992;5.924;2024-03-23T01:32:08;100437.28;;;7.08;91.82
69402;BME280;56589;51.992;5.924;2024-03-23T01:34:34;100441.50;;;7.11;91.71
69402;BME280;56589;51.992;5.924;2024-03-23T01:37:00;100432.91;;;7.08;91.74
69402;BME280;56589;51.992;5.924;2024-03-23T01:39:26;100426.00;;;7.07;91.40
69402;BME280;56589;51.992;5.924;2024-03-23T01:41:52;100421.72;;;7.06;91.80
69402;BME280;56589;51.992;5.924;2024-03-23T01:44:21;100412.25;;;7.04;91.37
69402;BME280;56589;51.992;5.924;2024-03-23T01:46:48;100414.22;;;7.00;91.72
69402;BME280;56589;51.992;5.924;2024-03-23T01:49:14;100415.19;;;6.98;91.50
69402;BME280;56589;51.992;5.924;2024-03-23T01:51:41;100412.59;;;6.98;91.27
69402;BME280;56589;51.992;5.924;2024-03-23T01:54:08;100413.63;;;6.95;91.41
69402;BME280;56589;51.992;5.924;2024-03-23T01:56:35;100414.47;;;6.96;91.68
69402;BME280;56589;51.992;5.924;2024-03-23T01:59:01;100414.47;;;6.96;91.97
69402;BME280;56589;51.992;5.924;2024-03-23T02:01:29;100410.91;;;6.97;92.06
69402;BME280;56589;51.992;5.924;2024-03-23T02:03:57;100409.09;;;6.99;91.60
69402;BME280;56589;51.992;5.924;2024-03-23T02:06:24;100410.75;;;7.00;91.92
69402;BME280;56589;51.992;5.924;2024-03-23T02:08:50;100393.34;;;7.00;91.62
69402;BME280;56589;51.992;5.924;2024-03-23T02:11:16;100401.16;;;7.00;91.70
69402;BME280;56589;51.992;5.924;2024-03-23T02:13:42;100388.03;;;7.02;92.12
69402;BME280;56589;51.992;5.924;2024-03-23T02:16:08;100395.94;;;7.00;91.70
69402;BME280;56589;51.992;5.924;2024-03-23T02:18:36;100390.88;;;6.97;91.35
69402;BME280;56589;51.992;5.924;2024-03-23T02:21:03;100386.59;;;6.96;91.54
69402;BME280;56589;51.992;5.924;2024-03-23T02:23:31;100384.06;;;6.95;91.97
69402;BME280;56589;51.992;5.924;2024-03-23T02:25:57;100378.84;;;6.95;91.89
69402;BME280;56589;51.992;5.924;2024-03-23T02:28:23;100377.91;;;6.96;91.86
69402;BME280;56589;51.992;5.924;2024-03-23T02:30:49;100374.47;;;6.95;91.80
69402;BME280;56589;51.992;5.924;2024-03-23T02:33:15;100368.31;;;6.96;91.75
69402;BME280;56589;51.992;5.924;2024-03-23T02:35:42;100363.09;;;6.96;91.60
69402;BME280;56589;51.992;5.924;2024-03-23T02:38:09;100370.09;;;6.96;91.62
69402;BME280;56589;51.992;5.924;2024-03-23T02:40:37;100369.34;;;6.94;91.69
69402;BME280;56589;51.992;5.924;2024-03-23T02:43:03;100364.22;;;6.92;91.74
69402;BME280;56589;51.992;5.924;2024-03-23T02:45:29;100362.78;;;6.87;91.17
69402;BME280;56589;51.992;5.924;2024-03-23T02:47:56;100357.91;;;6.80;91.23
69402;BME280;56589;51.992;5.924;2024-03-23T02:50:22;100359.25;;;6.72;90.98
69402;BME280;56589;51.992;5.924;2024-03-23T02:52:48;100363.19;;;6.63;91.16
69402;BME280;56589;51.992;5.924;2024-03-23T02:55:14;100366.97;;;6.58;90.72
69402;BME280;56589;51.992;5.924;2024-03-23T02:57:43;100361.16;;;6.52;90.80
69402;BME280;56589;51.992;5.924;2024-03-23T03:00:09;100369.16;;;6.49;91.05
69402;BME280;56589;51.992;5.924;2024-03-23T03:02:38;100363.44;;;6.43;90.83
69402;BME280;56589;51.992;5.924;2024-03-23T03:05:05;100375.78;;;6.39;90.90
69402;BME280;56589;51.992;5.924;2024-03-23T03:07:32;100373.34;;;6.36;91.19
69402;BME280;56589;51.992;5.924;2024-03-23T03:09:57;100375.19;;;6.34;91.14
69402;BME280;56589;51.992;5.924;2024-03-23T03:12:23;100367.47;;;6.33;91.36
69402;BME280;56589;51.992;5.924;2024-03-23T03:14:52;100369.22;;;6.32;91.38
69402;BME280;56589;51.992;5.924;2024-03-23T03:17:18;100366.75;;;6.29;91.60
69402;BME280;56589;51.992;5.924;2024-03-23T03:19:43;100365.25;;;6.25;91.69
69402;BME280;56589;51.992;5.924;2024-03-23T03:22:09;100367.09;;;6.23;91.61
69402;BME280;56589;51.992;5.924;2024-03-23T03:24:35;100365.66;;;6.17;91.42
69402;BME280;56589;51.992;5.924;2024-03-23T03:27:04;100371.13;;;6.13;91.15
69402;BME280;56589;51.992;5.924;2024-03-23T03:29:30;100368.75;;;6.08;91.26
69402;BME280;56589;51.992;5.924;2024-03-23T03:31:58;100362.09;;;6.03;91.32
69402;BME280;56589;51.992;5.924;2024-03-23T03:34:25;100370.91;;;6.00;91.26
69402;BME280;56589;51.992;5.924;2024-03-23T03:36:51;100371.16;;;5.95;91.36
69402;BME280;56589;51.992;5.924;2024-03-23T03:39:17;100363.47;;;5.92;91.30
69402;BME280;56589;51.992;5.924;2024-03-23T03:41:43;100362.03;;;5.87;91.30
69402;BME280;56589;51.992;5.924;2024-03-23T03:44:09;100363.13;;;5.83;91.63
69402;BME280;56589;51.992;5.924;2024-03-23T03:46:34;100356.38;;;5.79;91.53
69402;BME280;56589;51.992;5.924;2024-03-23T03:49:03;100347.81;;;5.77;91.52
69402;BME280;56589;51.992;5.924;2024-03-23T03:51:28;100347.94;;;5.73;91.72
69402;BME280;56589;51.992;5.924;2024-03-23T03:53:54;100341.06;;;5.72;91.79
69402;BME280;56589;51.992;5.924;2024-03-23T03:56:20;100340.31;;;5.70;91.54
69402;BME280;56589;51.992;5.924;2024-03-23T03:58:46;100336.03;;;5.69;91.80
69402;BME280;56589;51.992;5.924;2024-03-23T04:01:12;100342.38;;;5.64;91.46
69402;BME280;56589;51.992;5.924;2024-03-23T04:03:39;100334.63;;;5.62;91.42
69402;BME280;56589;51.992;5.924;2024-03-23T04:06:08;100335.72;;;5.58;91.43
69402;BME280;56589;51.992;5.924;2024-03-23T04:08:34;100336.78;;;5.54;91.50
69402;BME280;56589;51.992;5.924;2024-03-23T04:10:59;100337.78;;;5.52;91.25
69402;BME280;56589;51.992;5.924;2024-03-23T04:13:25;100337.09;;;5.48;91.44
69402;BME280;56589;51.992;5.924;2024-03-23T04:15:54;100338.16;;;5.44;91.66
69402;BME280;56589;51.992;5.924;2024-03-23T04:18:19;100340.84;;;5.42;91.92
69402;BME280;56589;51.992;5.924;2024-03-23T04:20:46;100328.91;;;5.38;91.46
69402;BME280;56589;51.992;5.924;2024-03-23T04:23:14;100332.50;;;5.36;91.59
69402;BME280;56589;51.992;5.924;2024-03-23T04:25:40;100334.44;;;5.32;91.40
69402;BME280;56589;51.992;5.924;2024-03-23T04:28:06;100329.34;;;5.29;91.73
69402;BME280;56589;51.992;5.924;2024-03-23T04:30:32;100332.13;;;5.26;91.48
69402;BME280;56589;51.992;5.924;2024-03-23T04:32:58;100327.06;;;5.23;91.25
69402;BME280;56589;51.992;5.924;2024-03-23T04:35:24;100330.66;;;5.21;91.33
69402;BME280;56589;51.992;5.924;2024-03-23T04:37:49;100330.72;;;5.19;91.53
69402;BME280;56589;51.992;5.924;2024-03-23T04:40:18;100326.59;;;5.15;91.10
69402;BME280;56589;51.992;5.924;2024-03-23T04:42:44;100329.34;;;5.12;91.12
69402;BME280;56589;51.992;5.924;2024-03-23T04:45:10;100331.19;;;5.10;91.21
69402;BME280;56589;51.992;5.924;2024-03-23T04:47:37;100324.44;;;5.06;91.57
69402;BME280;56589;51.992;5.924;2024-03-23T04:50:05;100322.03;;;5.01;91.28
69402;BME280;56589;51.992;5.924;2024-03-23T04:52:31;100319.53;;;5.00;91.29
69402;BME280;56589;51.992;5.924;2024-03-23T04:54:57;100323.97;;;4.98;91.14
69402;BME280;56589;51.992;5.924;2024-03-23T04:57:26;100318.13;;;4.92;91.48
69402;BME280;56589;51.992;5.924;2024-03-23T04:59:52;100313.06;;;4.89;91.35
69402;BME280;56589;51.992;5.924;2024-03-23T05:02:17;100314.88;;;4.87;91.26
69402;BME280;56589;51.992;5.924;2024-03-23T05:04:43;100313.28;;;4.85;91.04
69402;BME280;56589;51.992;5.924;2024-03-23T05:07:09;100308.16;;;4.83;91.27
69402;BME280;56589;51.992;5.924;2024-03-23T05:09:36;100307.44;;;4.80;91.35
69402;BME280;56589;51.992;5.924;2024-03-23T05:12:02;100311.06;;;4.77;91.26
69402;BME280;56589;51.992;5.924;2024-03-23T05:14:31;100317.13;;;4.76;91.27
69402;BME280;56589;51.992;5.924;2024-03-23T05:16:57;100321.66;;;4.73;91.06
69402;BME280;56589;51.992;5.924;2024-03-23T05:19:24;100320.03;;;4.70;91.40
69402;BME280;56589;51.992;5.924;2024-03-23T05:21:50;100321.78;;;4.70;91.58
69402;BME280;56589;51.992;5.924;2024-03-23T05:24:16;100317.44;;;4.70;91.66
69402;BME280;56589;51.992;5.924;2024-03-23T05:26:42;100323.44;;;4.72;91.91
69402;BME280;56589;51.992;5.924;2024-03-23T05:29:08;100326.66;;;4.77;92.23
69402;BME280;56589;51.992;5.924;2024-03-23T05:31:36;100322.06;;;4.82;92.48
69402;BME280;56589;51.992;5.924;2024-03-23T05:34:02;100320.91;;;4.88;92.62
69402;BME280;56589;51.992;5.924;2024-03-23T05:36:28;100327.53;;;4.95;92.35
69402;BME280;56589;51.992;5.924;2024-03-23T05:38:53;100319.53;;;5.00;92.62
69402;BME280;56589;51.992;5.924;2024-03-23T05:41:19;100326.34;;;5.02;92.29
69402;BME280;56589;51.992;5.924;2024-03-23T05:43:45;100327.94;;;5.05;92.25
69402;BME280;56589;51.992;5.924;2024-03-23T05:46:11;100318.38;;;5.05;92.22
69402;BME280;56589;51.992;5.924;2024-03-23T05:48:42;100330.63;;;5.03;91.79
69402;BME280;56589;51.992;5.924;2024-03-23T05:51:08;100328.13;;;5.02;91.49
69402;BME280;56589;51.992;5.924;2024-03-23T05:53:34;100322.13;;;5.00;91.95
69402;BME280;56589;51.992;5.924;2024-03-23T05:56:02;100312.63;;;4.99;91.49
69402;BME280;56589;51.992;5.924;2024-03-23T05:58:29;100326.56;;;4.98;91.79
69402;BME280;56589;51.992;5.924;2024-03-23T06:00:57;100318.69;;;4.99;91.63
69402;BME280;56589;51.992;5.924;2024-03-23T06:03:23;100319.38;;;5.03;91.55
69402;BME280;56589;51.992;5.924;2024-03-23T06:05:52;100320.59;;;5.13;92.12
69402;BME280;56589;51.992;5.924;2024-03-23T06:08:18;100325.69;;;5.33;92.83
69402;BME280;56589;51.992;5.924;2024-03-23T06:10:46;100323.13;;;5.66;93.87
69402;BME280;56589;51.992;5.924;2024-03-23T06:13:12;100317.28;;;6.12;94.33
69402;BME280;56589;51.992;5.924;2024-03-23T06:15:38;100327.69;;;6.61;93.68
69402;BME280;56589;51.992;5.924;2024-03-23T06:18:05;100330.94;;;7.12;93.74
69402;BME280;56589;51.992;5.924;2024-03-23T06:20:33;100334.09;;;7.63;93.06
69402;BME280;56589;51.992;5.924;2024-03-23T06:23:07;100331.13;;;8.11;92.42
69402;BME280;56589;51.992;5.924;2024-03-23T06:25:34;100325.13;;;8.52;90.57
69402;BME280;56589;51.992;5.924;2024-03-23T06:28:00;100331.88;;;8.83;88.21
69402;BME280;56589;51.992;5.924;2024-03-23T06:30:26;100328.91;;;9.02;87.69
69402;BME280;56589;51.992;5.924;2024-03-23T06:32:52;100325.50;;;9.14;86.43
69402;BME280;56589;51.992;5.924;2024-03-23T06:35:18;100327.56;;;9.09;83.96
69402;BME280;56589;51.992;5.924;2024-03-23T06:37:46;100333.56;;;8.84;83.48
69402;BME280;56589;51.992;5.924;2024-03-23T06:40:18;100317.91;;;8.56;82.98
69402;BME280;56589;51.992;5.924;2024-03-23T06:42:43;100320.00;;;8.36;83.30
69402;BME280;56589;51.992;5.924;2024-03-23T06:45:11;100318.63;;;8.17;83.16
69402;BME280;56589;51.992;5.924;2024-03-23T06:47:37;100325.63;;;8.02;83.06
69402;BME280;56589;51.992;5.924;2024-03-23T06:50:04;100311.34;;;7.93;83.94
69402;BME280;56589;51.992;5.924;2024-03-23T06:52:30;100327.59;;;7.98;84.21
69402;BME280;56589;51.992;5.924;2024-03-23T06:54:57;100327.50;;;8.00;83.31
69402;BME280;56589;51.992;5.924;2024-03-23T06:57:26;100306.94;;;7.94;83.28
69402;BME280;56589;51.992;5.924;2024-03-23T06:59:51;100323.66;;;7.77;82.69
69402;BME280;56589;51.992;5.924;2024-03-23T07:02:18;100325.66;;;7.57;82.30
69402;BME280;56589;51.992;5.924;2024-03-23T07:04:47;100325.81;;;7.40;82.52
69402;BME280;56589;51.992;5.924;2024-03-23T07:07:12;100325.06;;;7.38;83.37
69402;BME280;56589;51.992;5.924;2024-03-23T07:09:40;100323.97;;;7.42;83.50
69402;BME280;56589;51.992;5.924;2024-03-23T07:12:06;100327.91;;;7.49;83.34
69402;BME280;56589;51.992;5.924;2024-03-23T07:14:35;100320.63;;;7.54;83.28
69402;BME280;56589;51.992;5.924;2024-03-23T07:17:07;100328.19;;;7.59;82.63
69402;BME280;56589;51.992;5.924;2024-03-23T07:19:33;100318.31;;;7.64;82.95
69402;BME280;56589;51.992;5.924;2024-03-23T07:21:59;100317.88;;;7.72;83.28
69402;BME280;56589;51.992;5.924;2024-03-23T07:24:25;100315.63;;;7.80;83.11
69402;BME280;56589;51.992;5.924;2024-03-23T07:26:50;100311.91;;;7.84;82.56
69402;BME280;56589;51.992;5.924;2024-03-23T07:29:20;100320.41;;;7.87;81.92
69402;BME280;56589;51.992;5.924;2024-03-23T07:31:53;100314.22;;;7.88;82.38
69402;BME280;56589;51.992;5.924;2024-03-23T07:34:22;100319.28;;;7.92;81.96
69402;BME280;56589;51.992;5.924;2024-03-23T07:36:48;100316.56;;;7.93;82.34
69402;BME280;56589;51.992;5.924;2024-03-23T07:39:14;100320.50;;;8.00;82.65
69402;BME280;56589;51.992;5.924;2024-03-23T07:41:44;100322.84;;;8.05;82.08
69402;BME280;56589;51.992;5.924;2024-03-23T07:44:12;100324.41;;;8.07;82.05
69402;BME280;56589;51.992;5.924;2024-03-23T07:46:40;100322.63;;;8.08;81.27
69402;BME280;56589;51.992;5.924;2024-03-23T07:49:08;100313.31;;;8.04;81.76
69402;BME280;56589;51.992;5.924;2024-03-23T07:51:36;100321.78;;;8.07;82.02
69402;BME280;56589;51.992;5.924;2024-03-23T07:54:02;100314.72;;;8.09;81.87
69402;BME280;56589;51.992;5.924;2024-03-23T07:56:28;100309.84;;;8.18;81.99
69402;BME280;56589;51.992;5.924;2024-03-23T07:58:54;100323.00;;;8.30;81.93
69402;BME280;56589;51.992;5.924;2024-03-23T08:01:20;100303.56;;;8.34;81.21
69402;BME280;56589;51.992;5.924;2024-03-23T08:03:46;100317.22;;;8.39;81.11
69402;BME280;56589;51.992;5.924;2024-03-23T08:06:15;100312.34;;;8.48;81.67
69402;BME280;56589;51.992;5.924;2024-03-23T08:08:43;100312.78;;;8.54;81.18
69402;BME280;56589;51.992;5.924;2024-03-23T08:11:10;100319.69;;;8.55;79.94
69402;BME280;56589;51.992;5.924;2024-03-23T08:13:39;100320.81;;;8.51;79.76
69402;BME280;56589;51.992;5.924;2024-03-23T08:16:07;100319.53;;;8.44;79.73
69402;BME280;56589;51.992;5.924;2024-03-23T08:18:33;100316.91;;;8.44;80.34
69402;BME280;56589;51.992;5.924;2024-03-23T08:20:59;100305.50;;;8.45;79.94
69402;BME280;56589;51.992;5.924;2024-03-23T08:23:30;100314.22;;;8.46;79.37
69402;BME280;56589;51.992;5.924;2024-03-23T08:25:57;100317.28;;;8.38;78.44
69402;BME280;56589;51.992;5.924;2024-03-23T08:28:24;100316.09;;;8.29;78.18
69402;BME280;56589;51.992;5.924;2024-03-23T08:30:50;100314.69;;;8.24;78.58
69402;BME280;56589;51.992;5.924;2024-03-23T08:33:16;100317.09;;;8.27;77.36
69402;BME280;56589;51.992;5.924;2024-03-23T08:35:42;100306.47;;;8.30;78.16
69402;BME280;56589;51.992;5.924;2024-03-23T08:38:08;100315.44;;;8.40;78.62
69402;BME280;56589;51.992;5.924;2024-03-23T08:40:36;100313.91;;;8.50;76.64
69402;BME280;56589;51.992;5.924;2024-03-23T08:43:02;100311.59;;;8.46;75.54
69402;BME280;56589;51.992;5.924;2024-03-23T08:45:28;100313.44;;;8.43;76.77
69402;BME280;56589;51.992;5.924;2024-03-23T08:47:55;100313.44;;;8.43;77.02
69402;BME280;56589;51.992;5.924;2024-03-23T08:50:21;100315.06;;;8.46;76.76
69402;BME280;56589;51.992;5.924;2024-03-23T08:52:47;100299.34;;;8.46;74.56
69402;BME280;56589;51.992;5.924;2024-03-23T08:55:13;100294.84;;;8.48;74.27
69402;BME280;56589;51.992;5.924;2024-03-23T08:57:42;100300.53;;;8.55;75.71
69402;BME280;56589;51.992;5.924;2024-03-23T09:00:13;100304.44;;;8.62;75.70
69402;BME280;56589;51.992;5.924;2024-03-23T09:02:39;100311.34;;;8.63;74.35
69402;BME280;56589;51.992;5.924;2024-03-23T09:05:06;100322.31;;;8.55;74.10
69402;BME280;56589;51.992;5.924;2024-03-23T09:07:32;100317.78;;;8.30;72.65
69402;BME280;56589;51.992;5.924;2024-03-23T09:09:58;100325.53;;;8.03;72.53
69402;BME280;56589;51.992;5.924;2024-03-23T09:12:24;100320.28;;;7.75;73.30
69402;BME280;56589;51.992;5.924;2024-03-23T09:14:52;100325.09;;;7.52;74.65
69402;BME280;56589;51.992;5.924;2024-03-23T09:17:18;100321.38;;;7.42;74.93
69402;BME280;56589;51.992;5.924;2024-03-23T09:19:44;100316.50;;;7.36;75.63
69402;BME280;56589;51.992;5.924;2024-03-23T09:22:09;100326.09;;;7.36;75.61
69402;BME280;56589;51.992;5.924;2024-03-23T09:24:35;100321.25;;;7.28;75.68
69402;BME280;56589;51.992;5.924;2024-03-23T09:27:01;100310.34;;;7.21;75.61
69402;BME280;56589;51.992;5.924;2024-03-23T09:29:27;100302.94;;;7.14;76.09
69402;BME280;56589;51.992;5.924;2024-03-23T09:31:55;100310.03;;;7.12;76.20
69402;BME280;56589;51.992;5.924;2024-03-23T09:34:21;100302.78;;;7.17;76.36
69402;BME280;56589;51.992;5.924;2024-03-23T09:36:50;100300.94;;;7.33;76.91
69402;BME280;56589;51.992;5.924;2024-03-23T09:39:17;100289.47;;;7.51;77.58
69402;BME280;56589;51.992;5.924;2024-03-23T09:41:44;100288.09;;;7.74;77.07
69402;BME280;56589;51.992;5.924;2024-03-23T09:44:10;100290.91;;;7.85;76.22
69402;BME280;56589;51.992;5.924;2024-03-23T09:46:36;100286.97;;;7.93;75.69
69402;BME280;56589;51.992;5.924;2024-03-23T09:49:07;100285.78;;;7.98;74.92
69402;BME280;56589;51.992;5.924;2024-03-23T09:51:35;100292.19;;;8.07;75.72
69402;BME280;56589;51.992;5.924;2024-03-23T09:54:01;100282.75;;;8.19;74.94
69402;BME280;56589;51.992;5.924;2024-03-23T09:56:27;100277.50;;;8.33;73.82
69402;BME280;56589;51.992;5.924;2024-03-23T09:59:00;100271.59;;;8.43;72.72
69402;BME280;56589;51.992;5.924;2024-03-23T10:01:26;100275.09;;;8.57;73.21
69402;BME280;56589;51.992;5.924;2024-03-23T10:03:52;100277.75;;;8.84;75.15
69402;BME280;56589;51.992;5.924;2024-03-23T10:06:21;100273.16;;;9.27;74.65
69402;BME280;56589;51.992;5.924;2024-03-23T10:08:47;100268.66;;;9.55;73.27
69402;BME280;56589;51.992;5.924;2024-03-23T10:11:14;100266.81;;;9.57;71.79
69402;BME280;56589;51.992;5.924;2024-03-23T10:13:42;100272.97;;;9.43;71.35
69402;BME280;56589;51.992;5.924;2024-03-23T10:16:09;100284.84;;;9.21;70.91
69402;BME280;56589;51.992;5.924;2024-03-23T10:18:37;100279.25;;;9.01;70.53
69402;BME280;56589;51.992;5.924;2024-03-23T10:21:07;100273.91;;;8.75;70.53
69402;BME280;56589;51.992;5.924;2024-03-23T10:23:38;100276.03;;;8.56;69.16
69402;BME280;56589;51.992;5.924;2024-03-23T10:26:18;100270.13;;;8.39;69.84
69402;BME280;56589;51.992;5.924;2024-03-23T10:29:05;100283.03;;;8.28;69.70
69402;BME280;56589;51.992;5.924;2024-03-23T10:31:31;100281.19;;;8.16;69.24
69402;BME280;56589;51.992;5.924;2024-03-23T10:33:57;100297.81;;;8.15;70.28
69402;BME280;56589;51.992;5.924;2024-03-23T10:36:24;100311.16;;;8.10;69.83
69402;BME280;56589;51.992;5.924;2024-03-23T10:38:54;100301.53;;;7.82;69.71
69402;BME280;56589;51.992;5.924;2024-03-23T10:41:20;100297.50;;;7.48;70.74
69402;BME280;56589;51.992;5.924;2024-03-23T10:43:47;100297.97;;;7.25;71.71
69402;BME280;56589;51.992;5.924;2024-03-23T10:46:14;100287.66;;;7.07;72.55
69402;BME280;56589;51.992;5.924;2024-03-23T10:48:41;100287.75;;;7.06;73.53
69402;BME280;56589;51.992;5.924;2024-03-23T10:51:08;100292.00;;;7.23;73.89
69402;BME280;56589;51.992;5.924;2024-03-23T10:53:35;100271.44;;;7.47;74.88
69402;BME280;56589;51.992;5.924;2024-03-23T10:56:04;100268.75;;;7.63;73.90
69402;BME280;56589;51.992;5.924;2024-03-23T10:58:38;100257.56;;;7.75;73.80
69402;BME280;56589;51.992;5.924;2024-03-23T11:01:06;100254.78;;;7.92;74.14
69402;BME280;56589;51.992;5.924;2024-03-23T11:03:33;100255.50;;;8.23;74.54
69402;BME280;56589;51.992;5.924;2024-03-23T11:06:00;100252.66;;;8.40;71.52
69402;BME280;56589;51.992;5.924;2024-03-23T11:08:34;100260.84;;;8.48;70.36
69402;BME280;56589;51.992;5.924;2024-03-23T11:11:17;100266.13;;;8.61;70.19
69402;BME280;56589;51.992;5.924;2024-03-23T11:13:44;100262.38;;;8.65;69.69
69402;BME280;56589;51.992;5.924;2024-03-23T11:16:13;100258.31;;;8.74;68.42
69402;BME280;56589;51.992;5.924;2024-03-23T11:18:40;100271.13;;;8.78;67.59
69402;BME280;56589;51.992;5.924;2024-03-23T11:21:06;100255.72;;;8.74;67.70
69402;BME280;56589;51.992;5.924;2024-03-23T11:23:33;100260.16;;;8.86;67.96
69402;BME280;56589;51.992;5.924;2024-03-23T11:25:58;100257.03;;;9.06;67.14
69402;BME280;56589;51.992;5.924;2024-03-23T11:28:27;100267.69;;;9.30;65.27
69402;BME280;56589;51.992;5.924;2024-03-23T11:30:53;100288.81;;;9.54;65.88
69402;BME280;56589;51.992;5.924;2024-03-23T11:33:19;100265.97;;;9.56;63.87
69402;BME280;56589;51.992;5.924;2024-03-23T11:35:45;100260.38;;;9.35;64.64
69402;BME280;56589;51.992;5.924;2024-03-23T11:38:12;100260.63;;;9.18;66.14
69402;BME280;56589;51.992;5.924;2024-03-23T11:40:39;100265.97;;;9.04;66.96
69402;BME280;56589;51.992;5.924;2024-03-23T11:43:07;100266.75;;;8.91;66.54
69402;BME280;56589;51.992;5.924;2024-03-23T11:45:37;100271.97;;;8.79;66.45
69402;BME280;56589;51.992;5.924;2024-03-23T11:48:08;100271.81;;;8.67;67.31
69402;BME280;56589;51.992;5.924;2024-03-23T11:50:37;100285.53;;;8.71;68.27
69402;BME280;56589;51.992;5.924;2024-03-23T11:53:13;100262.47;;;8.90;67.67
69402;BME280;56589;51.992;5.924;2024-03-23T11:55:47;100258.22;;;9.15;67.41
69402;BME280;56589;51.992;5.924;2024-03-23T11:58:15;100241.84;;;9.38;66.07
69402;BME280;56589;51.992;5.924;2024-03-23T12:00:50;100248.88;;;9.63;67.10
69402;BME280;56589;51.992;5.924;2024-03-23T12:03:18;100246.00;;;9.92;67.50
69402;BME280;56589;51.992;5.924;2024-03-23T12:05:48;100256.91;;;10.11;66.66
69402;BME280;56589;51.992;5.924;2024-03-23T12:08:19;100266.22;;;10.02;63.39
69402;BME280;56589;51.992;5.924;2024-03-23T12:10:48;100264.38;;;9.79;65.12
69402;BME280;56589;51.992;5.924;2024-03-23T12:13:19;100273.91;;;9.67;64.18
69402;BME280;56589;51.992;5.924;2024-03-23T12:15:50;100265.44;;;9.51;65.00
69402;BME280;56589;51.992;5.924;2024-03-23T12:18:23;100257.03;;;9.46;66.09
69402;BME280;56589;51.992;5.924;2024-03-23T12:20:49;100257.34;;;9.41;65.21
69402;BME280;56589;51.992;5.924;2024-03-23T12:23:15;100249.91;;;9.35;64.87
69402;BME280;56589;51.992;5.924;2024-03-23T12:25:41;100244.72;;;9.21;64.72
69402;BME280;56589;51.992;5.924;2024-03-23T12:28:07;100248.47;;;9.04;63.97
69402;BME280;56589;51.992;5.924;2024-03-23T12:30:34;100245.72;;;8.93;64.37
69402;BME280;56589;51.992;5.924;2024-03-23T12:33:04;100242.47;;;8.89;64.42
69402;BME280;56589;51.992;5.924;2024-03-23T12:35:30;100242.94;;;8.82;64.50
69402;BME280;56589;51.992;5.924;2024-03-23T12:37:56;100240.97;;;8.85;65.55
69402;BME280;56589;51.992;5.924;2024-03-23T12:40:22;100237.81;;;9.07;65.51
69402;BME280;56589;51.992;5.924;2024-03-23T12:42:47;100231.38;;;9.38;66.01
69402;BME280;56589;51.992;5.924;2024-03-23T12:45:15;100226.53;;;9.58;65.20
69402;BME280;56589;51.992;5.924;2024-03-23T12:47:41;100215.41;;;9.67;65.17
69402;BME280;56589;51.992;5.924;2024-03-23T12:50:11;100216.66;;;9.74;63.14
69402;BME280;56589;51.992;5.924;2024-03-23T12:52:37;100227.06;;;9.75;62.82
69402;BME280;56589;51.992;5.924;2024-03-23T12:55:06;100220.88;;;9.76;63.53
69402;BME280;56589;51.992;5.924;2024-03-23T12:57:33;100219.28;;;9.74;62.45
69402;BME280;56589;51.992;5.924;2024-03-23T12:59:59;100218.03;;;9.67;63.11
69402;BME280;56589;51.992;5.924;2024-03-23T13:02:25;100215.63;;;9.64;63.37
69402;BME280;56589;51.992;5.924;2024-03-23T13:04:55;100216.19;;;9.56;62.48
69402;BME280;56589;51.992;5.924;2024-03-23T13:07:24;100213.56;;;9.56;63.03
69402;BME280;56589;51.992;5.924;2024-03-23T13:09:50;100214.81;;;9.63;62.05
69402;BME280;56589;51.992;5.924;2024-03-23T13:12:16;100208.19;;;9.70;62.13
69402;BME280;56589;51.992;5.924;2024-03-23T13:14:42;100207.84;;;9.88;61.70
69402;BME280;56589;51.992;5.924;2024-03-23T13:17:08;100217.25;;;10.03;61.08
69402;BME280;56589;51.992;5.924;2024-03-23T13:19:35;100194.28;;;10.07;59.40
69402;BME280;56589;51.992;5.924;2024-03-23T13:22:01;100201.63;;;10.01;57.72
69402;BME280;56589;51.992;5.924;2024-03-23T13:24:29;100212.25;;;9.87;59.15
69402;BME280;56589;51.992;5.924;2024-03-23T13:26:56;100205.34;;;9.73;59.65
69402;BME280;56589;51.992;5.924;2024-03-23T13:29:23;100211.53;;;9.60;60.49
69402;BME280;56589;51.992;5.924;2024-03-23T13:31:50;100208.09;;;9.46;60.63
69402;BME280;56589;51.992;5.924;2024-03-23T13:34:17;100211.66;;;9.33;60.63
69402;BME280;56589;51.992;5.924;2024-03-23T13:36:44;100203.00;;;9.18;61.16
69402;BME280;56589;51.992;5.924;2024-03-23T13:39:14;100210.25;;;9.02;61.34
69402;BME280;56589;51.992;5.924;2024-03-23T13:41:44;100199.53;;;8.92;61.30
69402;BME280;56589;51.992;5.924;2024-03-23T13:44:11;100205.72;;;8.91;61.32
69402;BME280;56589;51.992;5.924;2024-03-23T13:46:39;100213.69;;;9.02;61.90
69402;BME280;56589;51.992;5.924;2024-03-23T13:49:06;100205.00;;;9.14;61.51
69402;BME280;56589;51.992;5.924;2024-03-23T13:51:33;100200.50;;;9.16;60.29